Latest Weather Observations for Tennant Creek

IDD60801

Issued at 6:01 pm CST Thursday 27 July 2017 (issued every 30 minutes, with the page automatically refreshed every 10 minutes)

About weather observations | Map of weather stations | Latest weather observations for NT | Other Formats
Station Details ID: 015135 Name: TENNANT CREEK AIRPORT Lat: -19.64 Lon: 134.18 Height: 375.7 m
Data from the previous 72 hours. | See also: Recent months at Tennant Creek
Date/Time
CST
Temp
°C
App
Temp
°C
Dew
Point
°C
Rel
Hum
%
Delta-T
°C
Wind Press
QNH
hPa
Press
MSL
hPa
Rain since
9am
mm
Dir  Spd
km/h
Gust
km/h
Spd
kts
Gust
kts
27/06:00pm 26.1 21.3 0.0 18 12.3 ESE 15 20 8 11 1018.4 1017.4 0.0
27/05:30pm 27.0 22.0 -0.9 16 13.0 ESE 15 19 8 10 1018.1 1017.0 0.0
27/05:00pm 27.6 22.3 -0.5 16 13.3 ESE 17 28 9 15 1018.1 1017.0 0.0
27/04:30pm 28.0 22.9 0.7 17 13.2 SE 17 24 9 13 1018.0 1016.9 0.0
27/04:00pm 28.1 23.0 0.8 17 13.3 E 17 26 9 14 1017.8 1016.7 0.0
27/03:55pm 28.4 23.3 1.0 17 13.4 E 17 28 9 15 1017.8 1016.7 0.0
27/03:30pm 28.1 23.0 0.8 17 13.3 ESE 17 28 9 15 1017.9 1016.8 0.0
27/03:00pm 27.9 22.9 1.4 18 13.0 ESE 17 26 9 14 1018.1 1017.0 0.0
27/02:30pm 27.8 22.5 2.1 19 12.7 E 19 30 10 16 1018.3 1017.3 0.0
27/02:19pm 27.5 22.2 1.8 19 12.7 E 19 30 10 16 1018.5 1017.5 0.0
27/02:02pm 27.8 23.0 2.8 20 12.6 ESE 17 32 9 17 1018.7 1017.7 0.0
27/02:00pm 27.8 23.0 2.8 20 12.6 E 17 32 9 17 1018.8 1017.8 0.0
27/01:30pm 28.1 23.4 3.0 20 12.7 ESE 17 26 9 14 1019.1 1018.1 0.0
27/01:00pm 27.7 22.8 4.1 22 12.1 E 19 30 10 16 1019.6 1018.6 0.0
27/12:30pm 26.6 21.3 3.2 22 11.7 ESE 20 30 11 16 1020.2 1019.2 0.0
27/12:00pm 26.1 20.9 2.7 22 11.6 E 19 30 10 16 1020.9 1019.9 0.0
27/11:30am 26.0 20.3 2.7 22 11.5 E 22 33 12 18 1021.1 1020.1 0.0
27/11:00am 25.5 19.4 2.9 23 11.2 ENE 24 33 13 18 1021.3 1020.3 0.0
27/10:30am 24.4 17.5 2.5 24 10.7 ENE 28 33 15 18 1021.5 1020.5 0.0
27/10:00am 23.4 17.4 3.4 27 9.9 E 24 32 13 17 1021.5 1020.5 0.0
27/09:30am 22.1 17.0 4.2 31 8.9 E 20 28 11 15 1021.3 1020.3 0.0
27/09:00am 20.3 14.9 2.6 31 8.4 E 20 30 11 16 1020.9 1019.9 0.0
27/08:30am 18.8 13.2 1.3 31 8.0 E 20 28 11 15 1020.5 1019.4 0.0
27/08:00am 17.8 12.1 0.5 31 7.7 E 20 28 11 15 1020.1 1019.1 0.0
27/07:30am 17.1 11.3 -0.1 31 7.5 E 20 28 11 15 1019.7 1018.7 0.0
27/07:00am 16.8 11.0 0.0 32 7.4 E 20 28 11 15 1019.7 1018.7 0.0
27/06:30am 17.0 11.4 0.2 32 7.4 E 19 26 10 14 1019.4 1018.4 0.0
27/06:00am 16.3 11.1 0.4 34 7.0 E 17 19 9 10 1019.4 1018.4 0.0
27/05:30am 16.6 11.5 0.7 34 7.0 E 17 20 9 11 1019.4 1018.4 0.0
27/05:00am 16.8 11.3 0.9 34 7.1 ESE 19 26 10 14 1019.3 1018.3 0.0
27/04:30am 16.8 11.4 1.3 35 7.0 ESE 19 26 10 14 1019.3 1018.3 0.0
27/04:00am 17.1 12.1 1.5 35 7.1 ESE 17 24 9 13 1019.3 1018.3 0.0
27/03:30am 17.1 12.2 1.9 36 6.9 ESE 17 24 9 13 1019.2 1018.2 0.0
27/03:00am 17.2 12.4 2.4 37 6.8 ESE 17 22 9 12 1019.3 1018.3 0.0
27/02:30am 17.4 12.6 2.6 37 6.9 ESE 17 26 9 14 1019.4 1018.4 0.0
27/02:00am 17.6 12.8 2.8 37 6.9 ESE 17 20 9 11 1019.6 1018.6 0.0
27/01:30am 17.4 12.2 3.3 39 6.6 ESE 20 26 11 14 1019.6 1018.6 0.0
27/01:00am 18.3 14.0 3.4 37 7.1 ESE 15 20 8 11 1019.7 1018.7 0.0
27/12:30am 18.2 14.4 4.0 39 6.8 ESE 13 17 7 9 1019.7 1018.7 0.0
27/12:00am 17.8 14.0 4.0 40 6.6 ESE 13 15 7 8 1019.7 1018.7 0.0
 
Date/Time
CST
Temp
°C
App
Temp
°C
Dew
Point
°C
Rel
Hum
%
Delta-T
°C
Wind Press
QNH
hPa
Press
MSL
hPa
Rain since
9am
mm
Dir  Spd
km/h
Gust
km/h
Spd
kts
Gust
kts
26/11:30pm 18.9 14.8 4.3 38 7.1 ESE 15 19 8 10 1019.5 1018.5 0.0
26/11:00pm 18.9 15.3 5.0 40 6.9 ESE 13 17 7 9 1019.4 1018.4 0.0
26/10:30pm 20.1 15.8 5.4 38 7.4 ESE 17 20 9 11 1019.5 1018.5 0.0
26/10:00pm 20.0 16.2 5.6 39 7.2 ESE 15 20 8 11 1019.6 1018.6 0.0
26/09:30pm 20.7 16.8 5.5 37 7.6 ESE 15 19 8 10 1019.6 1018.6 0.0
26/09:00pm 21.4 17.5 5.3 35 8.1 SE 15 19 8 10 1019.4 1018.4 0.0
26/08:30pm 21.8 18.6 5.3 34 8.3 ESE 11 15 6 8 1019.1 1018.1 0.0
26/08:00pm 22.6 19.1 5.5 33 8.7 ESE 13 15 7 8 1018.9 1017.9 0.0
26/07:30pm 23.2 19.6 5.2 31 9.2 ESE 13 15 7 8 1018.7 1017.7 0.0
26/07:00pm 23.6 20.4 5.0 30 9.5 SE 11 15 6 8 1018.3 1017.3 0.0
26/06:30pm 24.8 21.2 5.1 28 10.1 ESE 13 17 7 9 1018.1 1017.0 0.0
26/06:00pm 26.1 22.1 5.1 26 10.9 ESE 15 19 8 10 1017.9 1016.8 0.0
26/05:30pm 27.1 22.7 4.8 24 11.5 E 17 24 9 13 1017.5 1016.5 0.0
26/05:00pm 27.5 22.8 5.1 24 11.7 ESE 19 26 10 14 1017.4 1016.4 0.0
26/04:30pm 28.1 23.9 5.6 24 11.9 E 17 26 9 14 1017.4 1016.4 0.0
26/04:00pm 28.2 23.6 5.7 24 11.9 SE 19 30 10 16 1017.5 1016.5 0.0
26/03:30pm 28.0 23.6 5.0 23 12.0 ESE 17 28 9 15 1017.4 1016.4 0.0
26/03:00pm 27.8 22.8 4.8 23 12.0 ESE 20 30 11 16 1017.7 1016.6 0.0
26/02:30pm 27.6 22.2 4.6 23 11.9 ESE 22 33 12 18 1017.9 1016.8 0.0
26/02:00pm 28.1 23.2 5.0 23 12.1 ESE 20 30 11 16 1018.2 1017.1 0.0
26/01:30pm 27.5 21.7 4.5 23 11.9 E 24 33 13 18 1018.6 1017.6 0.0
26/01:00pm 27.4 21.7 5.1 24 11.6 E 24 39 13 21 1019.1 1018.1 0.0
26/12:30pm 27.0 20.1 4.7 24 11.5 ENE 30 39 16 21 1019.7 1018.7 0.0
26/12:00pm 26.8 19.5 4.6 24 11.4 E 32 39 17 21 1020.2 1019.2 0.0
26/11:30am 26.1 18.8 4.6 25 11.0 E 32 39 17 21 1020.5 1019.4 0.0
26/11:00am 25.7 18.3 4.2 25 10.9 E 32 39 17 21 1020.7 1019.7 0.0
26/10:30am 24.5 17.2 4.3 27 10.2 E 32 44 17 24 1020.9 1019.9 0.0
26/10:00am 23.7 16.3 4.1 28 9.8 E 32 43 17 23 1020.7 1019.7 0.0
26/09:30am 22.4 15.0 4.0 30 9.1 ESE 32 43 17 23 1020.7 1019.7 0.0
26/09:15am 21.7 14.7 3.9 31 8.8 E 30 50 16 27 1020.5 1019.4 0.0
26/09:00am 21.0 13.5 3.2 31 8.6 E 32 43 17 23 1020.5 1019.4 0.0
26/08:30am 19.7 13.2 2.6 32 8.1 ESE 26 33 14 18 1020.1 1019.1 0.0
26/08:00am 18.4 11.4 1.9 33 7.6 E 28 37 15 20 1019.9 1018.9 0.0
26/07:30am 17.4 11.1 1.4 34 7.2 ESE 24 32 13 17 1019.6 1018.6 0.0
26/07:00am 17.5 10.8 1.5 34 7.3 ESE 26 35 14 19 1019.4 1018.4 0.0
26/06:30am 17.7 11.7 1.2 33 7.5 E 22 32 12 17 1019.2 1018.2 0.0
26/06:00am 17.7 12.1 1.2 33 7.5 ESE 20 28 11 15 1019.0 1018.0 0.0
26/05:30am 17.8 12.2 1.3 33 7.5 ESE 20 28 11 15 1018.7 1017.7 0.0
26/05:00am 18.2 11.9 1.3 32 7.7 ESE 24 33 13 18 1018.7 1017.7 0.0
26/04:30am 18.4 12.5 1.4 32 7.8 ESE 22 32 12 17 1018.8 1017.8 0.0
26/04:00am 18.7 12.3 1.2 31 8.0 ESE 24 32 13 17 1018.8 1017.8 0.0
26/03:30am 18.5 12.6 1.9 33 7.7 ESE 22 32 12 17 1018.7 1017.7 0.0
26/03:00am 18.5 12.7 2.4 34 7.5 ESE 22 33 12 18 1018.7 1017.7 0.0
26/02:30am 19.0 13.7 2.8 34 7.6 ESE 20 30 11 16 1018.7 1017.7 0.0
26/02:00am 19.2 14.2 3.4 35 7.6 ESE 19 26 10 14 1018.8 1017.8 0.0
26/01:30am 19.2 14.1 4.2 37 7.3 ESE 20 30 11 16 1018.9 1017.9 0.0
26/01:00am 19.1 14.7 4.5 38 7.1 ESE 17 24 9 13 1019.0 1018.0 0.0
26/12:30am 19.2 14.4 4.9 39 7.0 ESE 19 24 10 13 1019.2 1018.2 0.0
26/12:00am 19.5 15.1 4.8 38 7.2 ESE 17 20 9 11 1019.2 1018.2 0.0
 
Date/Time
CST
Temp
°C
App
Temp
°C
Dew
Point
°C
Rel
Hum
%
Delta-T
°C
Wind Press
QNH
hPa
Press
MSL
hPa
Rain since
9am
mm
Dir  Spd
km/h
Gust
km/h
Spd
kts
Gust
kts
25/11:30pm 19.7 15.4 5.4 39 7.1 ESE 17 22 9 12 1019.3 1018.3 0.0
25/11:00pm 20.0 16.1 5.3 38 7.4 ESE 15 19 8 10 1019.2 1018.2 0.0
25/10:30pm 20.1 16.2 5.4 38 7.4 ESE 15 19 8 10 1019.2 1018.2 0.0
25/10:00pm 20.5 16.6 5.3 37 7.6 ESE 15 20 8 11 1019.1 1018.1 0.0
25/09:30pm 21.0 17.1 5.4 36 7.9 ESE 15 19 8 10 1019.0 1018.0 0.0
25/09:00pm 21.9 17.5 4.9 33 8.5 SE 17 22 9 12 1018.9 1017.9 0.0
25/08:30pm 22.5 18.1 4.5 31 9.0 SE 17 22 9 12 1018.8 1017.8 0.0
25/08:00pm 23.2 18.8 4.7 30 9.3 SE 17 24 9 13 1018.7 1017.7 0.0
25/07:30pm 23.4 19.3 4.4 29 9.5 SE 15 20 8 11 1018.3 1017.3 0.0
25/07:00pm 24.3 20.2 4.1 27 10.2 SE 15 17 8 9 1018.0 1016.9 0.0
25/06:30pm 24.8 20.9 3.5 25 10.6 SE 13 17 7 9 1017.7 1016.6 0.0
25/06:00pm 26.6 22.3 3.2 22 11.7 SE 15 19 8 10 1017.4 1016.4 0.0
25/05:30pm 27.5 23.2 3.2 21 12.3 ESE 15 20 8 11 1017.2 1016.2 0.0
25/05:00pm 28.1 24.1 3.0 20 12.7 ESE 13 17 7 9 1017.1 1016.1 0.0
25/04:30pm 28.4 24.4 2.6 19 13.0 ESE 13 19 7 10 1017.0 1016.0 0.0
25/04:00pm 28.2 23.6 1.7 18 13.1 E 15 24 8 13 1017.0 1016.0 0.0
25/03:30pm 28.4 24.0 2.6 19 13.0 E 15 24 8 13 1017.0 1016.0 0.0
25/03:00pm 28.2 24.1 2.4 19 12.9 E 13 24 7 13 1017.1 1016.1 0.0
25/02:30pm 28.3 23.1 2.5 19 12.9 ESE 19 26 10 14 1017.4 1016.4 0.0
25/02:00pm 28.0 22.8 2.2 19 12.9 ENE 19 26 10 14 1017.7 1016.6 0.0
25/01:30pm 27.8 22.3 2.1 19 12.7 E 20 32 11 17 1017.9 1016.8 0.0
25/01:00pm 26.7 20.2 0.4 18 12.6 E 24 32 13 17 1018.4 1017.4 0.0
25/12:30pm 26.5 19.6 0.3 18 12.5 E 26 33 14 18 1019.0 1018.0 0.0
25/12:00pm 25.6 18.7 0.3 19 12.0 E 26 35 14 19 1019.5 1018.5 0.0
25/11:30am 25.6 17.5 -0.5 18 12.1 E 32 41 17 22 1019.9 1018.9 0.0
25/11:00am 24.9 16.6 -1.8 17 12.1 ESE 32 39 17 21 1020.2 1019.2 0.0
25/10:30am 23.8 15.8 -2.7 17 11.7 E 30 43 16 23 1020.5 1019.4 0.0
25/10:00am 22.2 13.6 -4.0 17 11.1 E 32 43 17 23 1020.5 1019.4 0.0
25/09:30am 21.4 12.8 -3.9 18 10.7 E 32 43 17 23 1020.5 1019.4 0.0
25/09:00am 19.8 11.6 -3.8 20 9.8 E 30 37 16 20 1020.5 1019.4 0.0
25/08:30am 18.2 10.3 -4.5 21 9.2 ESE 28 39 15 21 1020.2 1019.2 0.0
25/08:00am 16.9 9.0 -4.3 23 8.5 ESE 28 35 15 19 1020.0 1019.0 0.0
25/07:30am 15.8 9.1 -4.2 25 7.9 ESE 22 30 12 16 1019.8 1018.8 0.0
25/07:00am 15.8 8.7 -4.2 25 7.9 ESE 24 30 13 16 1019.7 1018.7 0.0
25/06:30am 15.8 8.7 -4.2 25 7.9 E 24 30 13 16 1019.5 1018.5 0.0
25/06:00am 15.9 9.2 -4.6 24 8.1 ESE 22 32 12 17 1019.4 1018.4 0.0
25/05:30am 15.9 8.8 -4.6 24 8.1 E 24 32 13 17 1019.2 1018.2 0.0
25/05:00am 15.0 9.2 -4.3 26 7.6 E 17 26 9 14 1018.9 1017.9 0.0
25/04:30am 15.5 9.3 -4.4 25 7.8 ESE 19 26 10 14 1018.9 1017.9 0.0
25/04:00am 15.2 9.4 -4.2 26 7.7 ESE 17 22 9 12 1019.0 1018.0 0.0
25/03:30am 15.4 9.3 -4.0 26 7.7 ESE 19 26 10 14 1018.9 1017.9 0.0
25/03:00am 15.1 9.7 -4.2 26 7.6 ESE 15 20 8 11 1019.2 1018.2 0.0
25/02:30am 15.4 9.3 -4.0 26 7.7 ESE 19 26 10 14 1019.2 1018.2 0.0
25/02:00am 15.8 10.1 -3.6 26 7.8 ESE 17 24 9 13 1019.2 1018.2 0.0
25/01:30am 15.6 10.3 -3.3 27 7.6 ESE 15 17 8 9 1019.1 1018.1 0.0
25/01:00am 16.1 10.8 -3.4 26 7.9 ESE 15 17 8 9 1019.2 1018.2 0.0
25/12:30am 16.4 10.8 -2.6 27 7.8 ESE 17 19 9 10 1019.2 1018.2 0.0
25/12:00am 16.4 11.3 -2.1 28 7.7 ESE 15 19 8 10 1019.3 1018.3 0.0
 
Date/Time
CST
Temp
°C
App
Temp
°C
Dew
Point
°C
Rel
Hum
%
Delta-T
°C
Wind Press
QNH
hPa
Press
MSL
hPa
Rain since
9am
mm
Dir  Spd
km/h
Gust
km/h
Spd
kts
Gust
kts
24/11:30pm 16.7 11.2 -2.4 27 7.9 ESE 17 19 9 10 1019.2 1018.2 0.0
24/11:00pm 17.4 11.9 -2.3 26 8.3 ESE 17 26 9 14 1019.3 1018.3 0.0
24/10:30pm 18.2 13.0 -2.7 24 8.8 ESE 15 22 8 12 1019.3 1018.3 0.0
24/10:00pm 18.4 13.2 -2.5 24 8.8 ESE 15 20 8 11 1019.4 1018.4 0.0
24/09:30pm 18.7 13.5 -2.8 23 9.0 ESE 15 19 8 10 1019.5 1018.5 0.0
24/09:00pm 19.9 14.6 -3.7 20 9.8 ESE 15 19 8 10 1019.4 1018.4 0.0
24/08:30pm 19.8 14.9 -3.8 20 9.8 ESE 13 15 7 8 1019.2 1018.2 0.0
24/08:00pm 20.6 15.7 -3.8 19 10.3 ESE 13 17 7 9 1018.9 1017.9 0.0
24/07:30pm 20.9 15.9 -4.3 18 10.5 SE 13 15 7 8 1018.7 1017.7 0.0
24/07:00pm 21.5 16.6 -3.8 18 10.7 SE 13 15 7 8 1018.4 1017.4 0.0
24/06:30pm 22.3 17.7 -3.9 17 11.1 ESE 11 15 6 8 1018.3 1017.3 0.0

Other Formats:

Comma delimited format used in spreadsheet applications
http://www.bom.gov.au/fwo/IDD60801/IDD60801.94238.axf

JavaScript Object Notation format (JSON) in row-major order
http://www.bom.gov.au/fwo/IDD60801/IDD60801.94238.json